createdAt,value
2022-08-03T00:00:50.901Z,18.16
2022-08-03T00:01:52.423Z,18.15
2022-08-03T00:02:54.091Z,18.16
2022-08-03T00:03:55.747Z,18.28
2022-08-03T00:04:57.218Z,18.21
2022-08-03T00:06:04.763Z,18.24
2022-08-03T00:07:06.676Z,18.26
2022-08-03T00:08:08.163Z,18.26
2022-08-03T00:09:10.731Z,18.20
2022-08-03T00:10:13.455Z,18.16
2022-08-03T00:11:14.920Z,18.14
2022-08-03T00:12:16.744Z,18.11
2022-08-03T00:13:18.380Z,18.08
2022-08-03T00:14:19.851Z,18.09
2022-08-03T00:15:21.377Z,18.07
2022-08-03T00:16:22.834Z,18.01
2022-08-03T00:17:24.607Z,17.95
2022-08-03T00:18:26.107Z,17.87
2022-08-03T00:19:27.734Z,17.91
2022-08-03T00:20:29.199Z,18.00
2022-08-03T00:21:30.702Z,18.10
2022-08-03T00:22:35.263Z,18.08
2022-08-03T00:23:52.291Z,18.00
2022-08-03T00:24:54.272Z,17.94
2022-08-03T00:25:56.675Z,17.90
2022-08-03T00:26:58.164Z,17.87
2022-08-03T00:27:59.676Z,17.85
2022-08-03T00:29:01.117Z,17.86
2022-08-03T00:30:02.737Z,17.84
2022-08-03T00:31:04.277Z,17.80
2022-08-03T00:32:06.075Z,17.82
2022-08-03T00:33:11.100Z,17.76
2022-08-03T00:34:12.619Z,17.80
2022-08-03T00:35:28.041Z,17.85
2022-08-03T00:36:35.685Z,17.93
2022-08-03T00:37:40.589Z,17.93
2022-08-03T00:38:43.226Z,17.92
2022-08-03T00:39:44.675Z,17.84
2022-08-03T00:40:46.545Z,17.80
2022-08-03T00:41:47.984Z,17.81
2022-08-03T00:43:09.731Z,17.83
2022-08-03T00:44:11.166Z,17.89
2022-08-03T00:45:12.636Z,17.83
2022-08-03T00:46:19.026Z,17.78
2022-08-03T00:47:22.687Z,17.80
2022-08-03T00:48:33.470Z,17.80
2022-08-03T00:49:35.731Z,17.82
2022-08-03T00:50:42.223Z,17.78
2022-08-03T00:51:43.800Z,17.76
2022-08-03T00:52:46.689Z,17.75
2022-08-03T00:53:48.900Z,17.70
2022-08-03T00:54:50.412Z,17.73
2022-08-03T00:55:51.903Z,17.70
2022-08-03T00:56:59.581Z,17.67
2022-08-03T00:58:03.593Z,17.60
2022-08-03T00:59:05.206Z,17.49
2022-08-03T01:00:08.591Z,17.42
2022-08-03T01:01:10.747Z,17.44
2022-08-03T01:02:12.289Z,17.46
2022-08-03T01:03:13.765Z,17.42
2022-08-03T01:04:15.409Z,17.34
2022-08-03T01:05:17.828Z,17.33
2022-08-03T01:06:28.707Z,17.34
2022-08-03T01:07:45.363Z,17.34
2022-08-03T01:08:54.911Z,17.21
2022-08-03T01:10:10.223Z,17.12
2022-08-03T01:12:05.401Z,17.12
2022-08-03T01:13:06.834Z,17.17
2022-08-03T01:14:39.465Z,17.15
2022-08-03T01:15:50.342Z,17.19
2022-08-03T01:16:59.294Z,17.18
2022-08-03T01:18:25.825Z,17.18
2022-08-03T01:19:56.253Z,17.19
2022-08-03T01:21:03.758Z,17.22
2022-08-03T01:22:22.826Z,17.26
2022-08-03T01:23:32.958Z,17.31
2022-08-03T01:25:08.136Z,17.35
2022-08-03T01:26:17.728Z,17.36
2022-08-03T01:27:23.084Z,17.37
2022-08-03T01:28:41.892Z,17.32
2022-08-03T01:29:52.468Z,17.28
2022-08-03T01:30:58.847Z,17.29
2022-08-03T01:32:59.812Z,17.31
2022-08-03T01:33:36.181Z,17.36
2022-08-03T01:34:52.311Z,17.39
2022-08-03T01:36:02.201Z,17.33
2022-08-03T01:37:07.399Z,17.29
2022-08-03T01:38:13.547Z,17.28
2022-08-03T01:39:16.423Z,17.31
2022-08-03T01:40:20.444Z,17.20
2022-08-03T01:41:29.725Z,17.16
2022-08-03T01:42:33.585Z,17.21
2022-08-03T01:44:26.406Z,17.25
2022-08-03T01:45:00.799Z,17.30
2022-08-03T01:46:03.796Z,17.34
2022-08-03T01:47:07.229Z,17.31
2022-08-03T01:48:11.752Z,17.31
2022-08-03T01:49:13.831Z,17.32
2022-08-03T01:50:18.963Z,17.26
2022-08-03T01:51:22.266Z,17.16
2022-08-03T01:52:25.167Z,17.13
2022-08-03T01:53:28.018Z,17.13
2022-08-03T01:54:30.543Z,17.15
2022-08-03T01:55:33.480Z,17.12
2022-08-03T01:56:37.037Z,17.12
2022-08-03T01:58:06.315Z,17.09
2022-08-03T01:59:03.238Z,17.15
2022-08-03T02:00:06.286Z,17.16
2022-08-03T02:01:15.186Z,17.18
2022-08-03T02:02:32.628Z,17.16
2022-08-03T02:04:00.706Z,17.10
2022-08-03T02:05:11.068Z,17.09
2022-08-03T02:07:00.330Z,17.09
2022-08-03T02:07:39.679Z,17.03
2022-08-03T02:08:43.148Z,17.02
2022-08-03T02:09:49.621Z,17.13
2022-08-03T02:10:52.856Z,17.14
2022-08-03T02:11:55.727Z,17.11
2022-08-03T02:13:01.214Z,17.06
2022-08-03T02:14:05.159Z,17.04
2022-08-03T02:15:07.744Z,17.04
2022-08-03T02:16:10.402Z,17.04
2022-08-03T02:17:14.038Z,17.02
2022-08-03T02:18:18.041Z,17.05
2022-08-03T02:19:19.882Z,17.04
2022-08-03T02:20:21.795Z,17.00
2022-08-03T02:21:56.559Z,16.96
2022-08-03T02:22:46.464Z,16.90
2022-08-03T02:23:48.056Z,16.81
2022-08-03T02:24:51.184Z,16.84
2022-08-03T02:26:02.852Z,16.88
2022-08-03T02:27:18.258Z,16.86
2022-08-03T02:28:22.172Z,16.90
2022-08-03T02:29:39.401Z,16.92
2022-08-03T02:30:45.315Z,16.88
2022-08-03T02:31:49.716Z,16.88
2022-08-03T02:32:57.765Z,16.92
2022-08-03T02:34:06.496Z,16.96
2022-08-03T02:35:12.043Z,16.99
2022-08-03T02:36:15.996Z,16.95
2022-08-03T02:37:19.604Z,16.95
2022-08-03T02:38:26.132Z,16.94
2022-08-03T02:39:31.308Z,16.81
2022-08-03T02:40:33.247Z,16.84
2022-08-03T02:41:43.352Z,16.80
2022-08-03T02:42:47.100Z,16.80
2022-08-03T02:44:06.333Z,16.79
2022-08-03T02:45:11.883Z,16.72
2022-08-03T02:46:17.224Z,16.72
2022-08-03T02:47:20.240Z,16.82
2022-08-03T02:48:28.754Z,16.84
2022-08-03T02:49:41.111Z,16.83
2022-08-03T02:50:54.566Z,16.82
2022-08-03T02:51:58.251Z,16.82
2022-08-03T02:53:01.516Z,16.79
2022-08-03T02:54:04.151Z,16.77
2022-08-03T02:55:09.396Z,16.78
2022-08-03T02:56:11.743Z,16.81
2022-08-03T02:57:15.025Z,16.80
2022-08-03T02:58:19.605Z,16.77
2022-08-03T02:59:21.865Z,16.72
2022-08-03T03:00:28.135Z,16.72
2022-08-03T03:01:31.469Z,16.72
2022-08-03T03:02:34.238Z,16.74
2022-08-03T03:03:44.638Z,16.65
2022-08-03T03:05:51.744Z,16.68
2022-08-03T03:06:10.765Z,16.55
2022-08-03T03:07:16.833Z,16.38
2022-08-03T03:08:20.860Z,16.35
2022-08-03T03:09:40.089Z,16.29
2022-08-03T03:10:44.276Z,16.29
2022-08-03T03:11:46.104Z,16.29
2022-08-03T03:12:50.227Z,16.31
2022-08-03T03:13:53.604Z,16.28
2022-08-03T03:14:55.206Z,16.30
2022-08-03T03:16:00.616Z,16.33
2022-08-03T03:17:03.200Z,16.36
2022-08-03T03:18:06.919Z,16.34
2022-08-03T03:19:08.705Z,16.34
2022-08-03T03:20:11.300Z,16.29
2022-08-03T03:21:16.206Z,16.22
2022-08-03T03:22:20.535Z,16.25
2022-08-03T03:23:23.840Z,16.28
2022-08-03T03:24:26.576Z,16.25
2022-08-03T03:25:31.511Z,16.27
2022-08-03T03:26:34.462Z,16.27
2022-08-03T03:27:36.392Z,16.22
2022-08-03T03:28:37.975Z,16.19
2022-08-03T03:29:39.988Z,16.19
2022-08-03T03:30:42.187Z,16.19
2022-08-03T03:31:43.726Z,16.18
2022-08-03T03:32:45.382Z,16.16
2022-08-03T03:33:47.928Z,16.13
2022-08-03T03:34:49.861Z,16.12
2022-08-03T03:35:53.419Z,16.11
2022-08-03T03:36:54.939Z,16.08
2022-08-03T03:37:56.829Z,15.98
2022-08-03T03:38:58.334Z,15.96
2022-08-03T03:39:59.831Z,15.99
2022-08-03T03:41:01.820Z,15.94
2022-08-03T03:42:04.492Z,15.89
2022-08-03T03:43:12.737Z,15.94
2022-08-03T03:44:14.325Z,15.99
2022-08-03T03:45:16.426Z,16.06
2022-08-03T03:46:18.239Z,16.11
2022-08-03T03:47:32.230Z,16.12
2022-08-03T03:48:34.520Z,16.13
2022-08-03T03:49:36.377Z,16.10
2022-08-03T03:50:38.264Z,16.07
2022-08-03T03:51:39.719Z,16.04
2022-08-03T03:52:41.316Z,16.04
2022-08-03T03:53:59.617Z,15.99
2022-08-03T03:55:01.754Z,15.98
2022-08-03T03:56:03.743Z,15.96
2022-08-03T03:57:05.268Z,16.00
2022-08-03T03:58:07.082Z,15.97
2022-08-03T03:59:08.569Z,15.88
2022-08-03T04:00:12.301Z,15.89
2022-08-03T04:01:14.182Z,16.01
2022-08-03T04:02:16.051Z,16.02
2022-08-03T04:03:17.647Z,16.09
2022-08-03T04:04:19.107Z,16.09
2022-08-03T04:05:20.558Z,16.11
2022-08-03T04:06:22.130Z,16.13
2022-08-03T04:07:25.767Z,16.15
2022-08-03T04:08:27.236Z,16.19
2022-08-03T04:09:29.953Z,16.20
2022-08-03T04:10:33.863Z,16.26
2022-08-03T04:11:40.511Z,16.10
2022-08-03T04:12:50.150Z,16.02
2022-08-03T04:14:02.149Z,16.05
2022-08-03T04:15:05.900Z,16.12
2022-08-03T04:16:10.528Z,16.18
2022-08-03T04:17:13.302Z,16.22
2022-08-03T04:18:17.008Z,16.26
2022-08-03T04:19:26.716Z,16.34
2022-08-03T04:20:31.775Z,16.39
2022-08-03T04:21:35.501Z,16.43
2022-08-03T04:22:37.808Z,16.44
2022-08-03T04:23:44.398Z,16.48
2022-08-03T04:25:09.091Z,16.51
2022-08-03T04:26:15.095Z,16.57
2022-08-03T04:27:20.700Z,16.58
2022-08-03T04:28:30.425Z,16.61
2022-08-03T04:29:35.278Z,16.60
2022-08-03T04:30:40.682Z,16.60
2022-08-03T04:31:43.191Z,16.60
2022-08-03T04:32:46.993Z,16.59
2022-08-03T04:33:52.612Z,16.62
2022-08-03T04:34:54.435Z,16.66
2022-08-03T04:36:02.909Z,16.69
2022-08-03T04:37:16.176Z,16.67
2022-08-03T04:38:19.246Z,16.65
2022-08-03T04:39:24.987Z,16.72
2022-08-03T04:40:39.597Z,16.77
2022-08-03T04:42:04.315Z,16.74
2022-08-03T04:43:06.235Z,16.71
2022-08-03T04:44:08.963Z,16.70
2022-08-03T04:45:15.574Z,16.64
2022-08-03T04:46:19.212Z,16.68
2022-08-03T04:47:20.885Z,16.77
2022-08-03T04:48:22.741Z,16.81
2022-08-03T04:49:25.183Z,16.87
2022-08-03T04:50:27.286Z,16.95
2022-08-03T04:51:40.996Z,17.05
2022-08-03T04:52:42.972Z,17.09
2022-08-03T04:53:44.643Z,16.92
2022-08-03T04:54:50.475Z,16.80
2022-08-03T04:55:52.444Z,16.76
2022-08-03T04:56:53.951Z,16.80
2022-08-03T04:57:55.933Z,16.89
2022-08-03T04:58:57.379Z,17.00
2022-08-03T05:00:03.168Z,17.12
2022-08-03T05:01:05.111Z,17.20
2022-08-03T05:02:06.641Z,17.30
2022-08-03T05:03:23.740Z,17.37
2022-08-03T05:04:26.004Z,17.24
2022-08-03T05:05:37.844Z,17.13
2022-08-03T05:06:55.156Z,17.00
2022-08-03T05:07:57.377Z,16.94
2022-08-03T05:09:02.320Z,16.96
2022-08-03T05:10:14.817Z,16.99
2022-08-03T05:11:17.866Z,17.12
2022-08-03T05:12:19.323Z,17.23
2022-08-03T05:13:20.810Z,17.38
2022-08-03T05:14:27.967Z,17.54
2022-08-03T05:15:29.851Z,17.69
2022-08-03T05:16:31.388Z,17.80
2022-08-03T05:17:33.050Z,17.80
2022-08-03T05:18:34.549Z,17.88
2022-08-03T05:19:36.030Z,17.95
2022-08-03T05:20:37.472Z,18.04
2022-08-03T05:21:41.683Z,18.12
2022-08-03T05:22:53.811Z,18.26
2022-08-03T05:23:55.303Z,18.36
2022-08-03T05:24:56.789Z,18.49
2022-08-03T05:25:58.230Z,18.59
2022-08-03T05:26:59.717Z,18.72
2022-08-03T05:28:01.211Z,18.85
2022-08-03T05:29:02.717Z,19.01
2022-08-03T05:30:27.288Z,19.19
2022-08-03T05:31:26.468Z,19.44
2022-08-03T05:32:27.952Z,19.65
2022-08-03T05:33:29.470Z,19.89
2022-08-03T05:34:30.943Z,20.15
2022-08-03T05:36:01.935Z,20.41
2022-08-03T05:36:54.236Z,20.77
2022-08-03T05:37:55.684Z,21.03
2022-08-03T05:39:02.252Z,21.30
2022-08-03T05:40:04.892Z,21.68
2022-08-03T05:41:21.891Z,21.96
2022-08-03T05:42:25.299Z,22.18
2022-08-03T05:43:26.767Z,22.36
2022-08-03T05:44:28.413Z,22.52
2022-08-03T05:45:32.149Z,22.62
2022-08-03T05:46:33.618Z,22.74
2022-08-03T05:47:35.090Z,22.90
2022-08-03T05:48:36.584Z,23.06
2022-08-03T05:49:38.114Z,23.10
2022-08-03T05:50:42.762Z,23.12
2022-08-03T05:51:44.787Z,23.19
2022-08-03T05:52:46.699Z,23.31
2022-08-03T05:53:48.987Z,23.25
2022-08-03T05:54:55.580Z,23.10
2022-08-03T05:56:03.455Z,23.13
2022-08-03T05:57:16.340Z,23.22
2022-08-03T05:58:17.942Z,23.25
2022-08-03T05:59:37.704Z,23.27
2022-08-03T06:00:40.008Z,23.25
2022-08-03T06:01:41.527Z,23.14
2022-08-03T06:02:43.113Z,22.96
2022-08-03T06:03:45.950Z,22.79
2022-08-03T06:04:47.392Z,22.70
2022-08-03T06:05:55.565Z,22.59
2022-08-03T06:07:02.084Z,22.64
2022-08-03T06:08:03.792Z,22.64
2022-08-03T06:09:05.374Z,22.68
2022-08-03T06:10:35.662Z,22.69
2022-08-03T06:11:29.213Z,22.78
2022-08-03T06:12:30.727Z,22.89
2022-08-03T06:13:32.541Z,22.90
2022-08-03T06:14:33.992Z,22.90
2022-08-03T06:15:35.478Z,22.83
2022-08-03T06:16:36.983Z,22.73
2022-08-03T06:17:45.725Z,22.59
2022-08-03T06:18:47.203Z,22.49
2022-08-03T06:19:48.651Z,22.51
2022-08-03T06:20:50.811Z,22.42
2022-08-03T06:21:53.819Z,22.37
2022-08-03T06:23:01.237Z,22.43
2022-08-03T06:24:02.977Z,22.57
2022-08-03T06:25:10.240Z,22.69
2022-08-03T06:26:14.465Z,22.71
2022-08-03T06:27:16.256Z,22.70
2022-08-03T06:28:53.367Z,22.57
2022-08-03T06:29:39.168Z,22.55
2022-08-03T06:30:41.124Z,22.54
2022-08-03T06:31:42.614Z,22.40
2022-08-03T06:32:44.563Z,22.39
2022-08-03T06:34:33.671Z,22.43
2022-08-03T06:35:15.167Z,22.63
2022-08-03T06:36:16.641Z,22.78
2022-08-03T06:37:18.095Z,22.92
2022-08-03T06:38:19.580Z,23.06
2022-08-03T06:39:24.007Z,23.15
2022-08-03T06:40:25.704Z,23.14
2022-08-03T06:41:27.962Z,23.16
2022-08-03T06:42:29.447Z,23.11
2022-08-03T06:43:31.212Z,23.21
2022-08-03T06:44:37.407Z,23.36
2022-08-03T06:45:38.901Z,23.44
2022-08-03T06:46:40.366Z,23.52
2022-08-03T06:47:41.851Z,23.60
2022-08-03T06:48:46.278Z,23.71
2022-08-03T06:50:12.738Z,23.79
2022-08-03T06:51:09.211Z,23.83
2022-08-03T06:52:10.659Z,23.77
2022-08-03T06:53:19.762Z,23.72
2022-08-03T06:54:23.144Z,23.75
2022-08-03T06:55:24.832Z,23.82
2022-08-03T06:56:26.281Z,23.91
2022-08-03T06:57:27.777Z,23.98
2022-08-03T06:58:29.288Z,24.05
2022-08-03T07:00:09.956Z,24.01
2022-08-03T07:00:52.688Z,24.05
2022-08-03T07:01:54.200Z,23.98
2022-08-03T07:02:58.287Z,23.81
2022-08-03T07:04:00.095Z,23.68
2022-08-03T07:05:01.603Z,23.57
2022-08-03T07:06:03.495Z,23.65
2022-08-03T07:07:05.050Z,23.77
2022-08-03T07:08:06.552Z,23.89
2022-08-03T07:09:08.082Z,24.03
2022-08-03T07:10:10.389Z,24.14
2022-08-03T07:11:11.832Z,24.31
2022-08-03T07:12:13.305Z,24.48
2022-08-03T07:13:14.800Z,24.58
2022-08-03T07:14:16.297Z,24.60
2022-08-03T07:15:20.250Z,24.66
2022-08-03T07:16:39.196Z,24.66
2022-08-03T07:17:40.656Z,24.63
2022-08-03T07:18:42.214Z,24.58
2022-08-03T07:19:43.672Z,24.45
2022-08-03T07:20:45.159Z,24.35
2022-08-03T07:21:46.612Z,24.28
2022-08-03T07:22:48.188Z,24.31
2022-08-03T07:23:49.668Z,24.27
2022-08-03T07:24:51.121Z,24.26
2022-08-03T07:25:52.877Z,24.22
2022-08-03T07:26:54.315Z,24.26
2022-08-03T07:27:55.839Z,24.24
2022-08-03T07:28:57.837Z,24.20
2022-08-03T07:29:59.523Z,24.26
2022-08-03T07:31:00.971Z,24.28
2022-08-03T07:32:04.235Z,24.25
2022-08-03T07:33:05.724Z,24.23
2022-08-03T07:34:07.215Z,24.13
2022-08-03T07:35:24.205Z,24.05
2022-08-03T07:36:26.890Z,24.02
2022-08-03T07:37:29.403Z,24.18
2022-08-03T07:38:31.076Z,24.29
2022-08-03T07:39:32.595Z,24.39
2022-08-03T07:40:34.160Z,24.48
2022-08-03T07:41:35.639Z,24.50
2022-08-03T07:42:37.086Z,24.55
2022-08-03T07:43:38.532Z,24.61
2022-08-03T07:44:40.073Z,24.75
2022-08-03T07:45:41.508Z,24.92
2022-08-03T07:46:42.993Z,24.88
2022-08-03T07:47:53.053Z,24.80
2022-08-03T07:48:54.890Z,24.82
2022-08-03T07:49:56.842Z,24.86
2022-08-03T07:50:58.316Z,24.91
2022-08-03T07:51:59.800Z,24.91
2022-08-03T07:53:01.253Z,24.91
2022-08-03T07:54:03.075Z,25.00
2022-08-03T07:55:08.679Z,25.12
2022-08-03T07:56:11.443Z,25.25
2022-08-03T07:57:13.142Z,25.39
2022-08-03T07:58:16.506Z,25.49
2022-08-03T07:59:20.824Z,25.58
2022-08-03T08:00:22.270Z,25.65
2022-08-03T08:01:24.195Z,25.63
2022-08-03T08:02:25.793Z,25.58
2022-08-03T08:03:27.268Z,25.63
2022-08-03T08:04:28.789Z,25.83
2022-08-03T08:05:31.275Z,25.84
2022-08-03T08:06:32.775Z,25.84
2022-08-03T08:07:34.276Z,25.98
2022-08-03T08:08:35.736Z,26.06
2022-08-03T08:09:37.387Z,26.14
2022-08-03T08:10:38.952Z,26.16
2022-08-03T08:11:40.416Z,26.28
2022-08-03T08:12:41.908Z,26.41
2022-08-03T08:13:43.383Z,26.41
2022-08-03T08:14:44.889Z,26.48
2022-08-03T08:15:46.447Z,26.62
2022-08-03T08:16:49.377Z,26.71
2022-08-03T08:17:53.618Z,26.81
2022-08-03T08:18:55.100Z,26.93
2022-08-03T08:19:56.644Z,26.94
2022-08-03T08:20:59.356Z,26.94
2022-08-03T08:22:02.750Z,26.90
2022-08-03T08:23:19.913Z,26.98
2022-08-03T08:24:28.575Z,27.06
2022-08-03T08:25:31.570Z,27.14
2022-08-03T08:26:33.135Z,27.31
2022-08-03T08:28:29.332Z,27.52
2022-08-03T08:29:04.281Z,27.63
2022-08-03T08:30:11.418Z,27.66
2022-08-03T08:31:14.525Z,27.72
2022-08-03T08:32:16.235Z,27.81
2022-08-03T08:33:22.974Z,27.87
2022-08-03T08:34:25.385Z,27.95
2022-08-03T08:35:26.993Z,28.02
2022-08-03T08:36:28.466Z,28.11
2022-08-03T08:37:29.966Z,28.22
2022-08-03T08:38:31.429Z,28.15
2022-08-03T08:39:32.965Z,28.21
2022-08-03T08:40:34.419Z,28.28
2022-08-03T08:41:35.979Z,28.31
2022-08-03T08:42:38.049Z,28.29
2022-08-03T08:43:39.739Z,28.27
2022-08-03T08:44:41.214Z,28.22
2022-08-03T08:45:43.666Z,28.11
2022-08-03T08:46:45.588Z,28.20
2022-08-03T08:47:51.483Z,28.23
2022-08-03T08:48:54.240Z,28.15
2022-08-03T08:50:09.410Z,28.22
2022-08-03T08:51:12.726Z,28.34
2022-08-03T08:52:24.866Z,28.46
2022-08-03T08:53:29.473Z,28.56
2022-08-03T08:54:32.625Z,28.69
2022-08-03T08:55:58.642Z,28.79
2022-08-03T08:56:58.593Z,28.77
2022-08-03T08:58:05.528Z,28.81
2022-08-03T08:59:07.668Z,28.87
2022-08-03T09:00:11.156Z,28.91
2022-08-03T09:01:12.741Z,28.85
2022-08-03T09:02:14.457Z,28.98
2022-08-03T09:03:29.058Z,29.13
2022-08-03T09:04:32.456Z,29.16
2022-08-03T09:05:54.954Z,29.16
2022-08-03T09:07:18.004Z,29.26
2022-08-03T09:08:18.077Z,29.10
2022-08-03T09:10:10.126Z,29.07
2022-08-03T09:10:41.024Z,29.01
2022-08-03T09:11:52.427Z,28.97
2022-08-03T09:13:02.539Z,28.99
2022-08-03T09:14:04.448Z,28.92
2022-08-03T09:15:29.537Z,28.89
2022-08-03T09:16:31.052Z,28.87
2022-08-03T09:17:40.566Z,28.99
2022-08-03T09:18:44.095Z,28.97
2022-08-03T09:20:05.043Z,28.79
2022-08-03T09:21:35.508Z,28.85
2022-08-03T09:22:51.762Z,29.12
2022-08-03T09:24:04.358Z,29.15
2022-08-03T09:25:23.842Z,29.15
2022-08-03T09:26:28.075Z,29.28
2022-08-03T09:27:29.871Z,29.35
2022-08-03T09:29:01.604Z,29.43
2022-08-03T09:29:58.040Z,29.52
2022-08-03T09:31:00.493Z,29.62
2022-08-03T09:32:03.830Z,29.72
2022-08-03T09:33:08.310Z,29.88
2022-08-03T09:34:12.963Z,29.97
2022-08-03T09:35:14.769Z,30.07
2022-08-03T09:36:55.884Z,30.13
2022-08-03T09:38:16.638Z,30.25
2022-08-03T09:39:37.468Z,30.33
2022-08-03T09:40:43.268Z,30.32
2022-08-03T09:42:03.661Z,30.36
2022-08-03T09:43:05.185Z,30.45
2022-08-03T09:44:07.280Z,30.43
2022-08-03T09:45:26.332Z,30.41
2022-08-03T09:46:27.879Z,30.41
2022-08-03T09:47:34.421Z,30.55
2022-08-03T09:48:35.936Z,30.61
2022-08-03T09:49:39.007Z,30.60
2022-08-03T09:50:58.449Z,30.56
2022-08-03T09:52:38.495Z,30.61
2022-08-03T09:53:42.751Z,30.70
2022-08-03T09:55:02.076Z,30.66
2022-08-03T09:56:35.041Z,30.64
2022-08-03T09:57:27.079Z,30.70
2022-08-03T09:58:30.713Z,30.74
2022-08-03T09:59:33.443Z,30.79
2022-08-03T10:00:53.758Z,30.80
2022-08-03T10:01:56.699Z,30.66
2022-08-03T10:03:04.476Z,30.45
2022-08-03T10:04:05.928Z,30.43
2022-08-03T10:05:09.085Z,30.49
2022-08-03T10:06:20.984Z,30.52
2022-08-03T10:07:24.575Z,30.69
2022-08-03T10:08:26.039Z,30.65
2022-08-03T10:09:27.484Z,30.75
2022-08-03T10:10:43.035Z,30.78
2022-08-03T10:11:44.823Z,30.81
2022-08-03T10:12:46.307Z,30.88
2022-08-03T10:13:47.786Z,30.94
2022-08-03T10:14:49.432Z,30.88
2022-08-03T10:16:21.762Z,30.63
2022-08-03T10:17:12.451Z,30.37
2022-08-03T10:18:14.190Z,30.38
2022-08-03T10:19:16.677Z,30.43
2022-08-03T10:20:18.167Z,30.51
2022-08-03T10:21:20.671Z,30.60
2022-08-03T10:22:23.621Z,30.70
2022-08-03T10:23:25.484Z,30.84
2022-08-03T10:24:30.413Z,30.98
2022-08-03T10:25:34.133Z,30.93
2022-08-03T10:26:38.470Z,30.84
2022-08-03T10:27:47.245Z,30.76
2022-08-03T10:28:53.764Z,30.80
2022-08-03T10:29:57.937Z,30.63
2022-08-03T10:30:59.715Z,30.43
2022-08-03T10:32:04.636Z,30.47
2022-08-03T10:33:51.389Z,30.52
2022-08-03T10:34:44.498Z,30.81
2022-08-03T10:35:52.497Z,31.01
2022-08-03T10:36:59.947Z,31.02
2022-08-03T10:38:10.219Z,30.90
2022-08-03T10:39:16.191Z,30.91
2022-08-03T10:40:39.567Z,30.60
2022-08-03T10:41:43.753Z,30.40
2022-08-03T10:42:45.984Z,30.39
2022-08-03T10:43:56.349Z,30.48
2022-08-03T10:45:06.052Z,30.51
2022-08-03T10:46:08.234Z,30.62
2022-08-03T10:47:10.975Z,30.74
2022-08-03T10:48:13.596Z,30.84
2022-08-03T10:49:17.162Z,30.96
2022-08-03T10:50:36.202Z,30.96
2022-08-03T10:51:38.396Z,31.02
2022-08-03T10:53:14.710Z,30.94
2022-08-03T10:54:40.385Z,30.84
2022-08-03T10:55:46.332Z,30.82
2022-08-03T10:56:49.605Z,30.91
2022-08-03T10:57:56.242Z,30.97
2022-08-03T10:59:00.496Z,30.98
2022-08-03T11:00:06.108Z,31.12
2022-08-03T11:01:09.861Z,31.29
2022-08-03T11:02:12.062Z,31.36
2022-08-03T11:03:13.989Z,31.40
2022-08-03T11:04:17.959Z,31.48
2022-08-03T11:05:27.560Z,31.46
2022-08-03T11:06:29.071Z,31.55
2022-08-03T11:07:39.164Z,31.59
2022-08-03T11:08:40.655Z,31.63
2022-08-03T11:09:43.721Z,31.68
2022-08-03T11:10:45.943Z,31.78
2022-08-03T11:11:48.589Z,31.78
2022-08-03T11:12:50.409Z,31.69
2022-08-03T11:14:02.512Z,31.64
2022-08-03T11:15:07.425Z,31.47
2022-08-03T11:16:21.790Z,31.48
2022-08-03T11:17:24.119Z,31.49
2022-08-03T11:18:26.994Z,31.52
2022-08-03T11:19:57.889Z,31.40
2022-08-03T11:21:00.441Z,31.22
2022-08-03T11:22:01.966Z,31.26
2022-08-03T11:23:03.527Z,31.38
2022-08-03T11:24:06.782Z,31.31
2022-08-03T11:25:08.587Z,31.29
2022-08-03T11:26:29.958Z,31.41
2022-08-03T11:27:34.475Z,31.50
2022-08-03T11:28:36.944Z,31.52
2022-08-03T11:29:53.685Z,31.36
2022-08-03T11:30:55.231Z,31.36
2022-08-03T11:31:56.897Z,31.49
2022-08-03T11:32:59.596Z,31.64
2022-08-03T11:34:08.187Z,31.72
2022-08-03T11:35:27.919Z,31.80
2022-08-03T11:36:32.245Z,31.83
2022-08-03T11:37:34.535Z,31.68
2022-08-03T11:39:16.702Z,31.74
2022-08-03T11:40:43.993Z,31.47
2022-08-03T11:41:45.551Z,31.50
2022-08-03T11:42:47.027Z,31.61
2022-08-03T11:43:48.528Z,31.55
2022-08-03T11:45:00.426Z,31.51
2022-08-03T11:46:13.093Z,31.60
2022-08-03T11:47:14.921Z,31.64
2022-08-03T11:48:16.978Z,31.73
2022-08-03T11:49:20.697Z,31.74
2022-08-03T11:50:22.462Z,31.83
2022-08-03T11:51:29.333Z,31.80
2022-08-03T11:52:40.534Z,31.82
2022-08-03T11:53:43.303Z,31.82
2022-08-03T11:54:45.494Z,31.51
2022-08-03T11:55:48.105Z,31.44
2022-08-03T11:56:50.337Z,31.43
2022-08-03T11:59:01.689Z,31.35
2022-08-03T11:59:20.690Z,31.26
2022-08-03T12:00:25.836Z,31.15
2022-08-03T12:01:27.536Z,31.14
2022-08-03T12:02:29.007Z,31.22
2022-08-03T12:03:33.830Z,31.29
2022-08-03T12:04:52.197Z,31.39
2022-08-03T12:05:54.827Z,31.43
2022-08-03T12:07:00.988Z,31.44
2022-08-03T12:08:06.769Z,31.43
2022-08-03T12:09:17.296Z,31.39
2022-08-03T12:10:22.732Z,31.46
2022-08-03T12:11:24.221Z,31.40
2022-08-03T12:12:26.042Z,31.36
2022-08-03T12:14:44.868Z,31.30
2022-08-03T12:14:58.047Z,31.25
2022-08-03T12:15:59.545Z,31.31
2022-08-03T12:17:01.045Z,31.32
2022-08-03T12:18:12.343Z,31.31
2022-08-03T12:19:13.723Z,31.30
2022-08-03T12:20:34.633Z,31.42
2022-08-03T12:21:56.800Z,31.48
2022-08-03T12:23:05.260Z,31.48
2022-08-03T12:24:06.756Z,31.54
2022-08-03T12:25:09.823Z,31.59
2022-08-03T12:26:11.848Z,31.44
2022-08-03T12:27:23.349Z,31.40
2022-08-03T12:28:35.998Z,31.42
2022-08-03T12:29:39.716Z,31.23
2022-08-03T12:30:41.367Z,31.24
2022-08-03T12:31:42.849Z,31.17
2022-08-03T12:32:44.911Z,31.17
2022-08-03T12:34:03.069Z,31.08
2022-08-03T12:35:05.176Z,31.02
2022-08-03T12:36:08.516Z,30.91
2022-08-03T12:37:29.817Z,30.96
2022-08-03T12:38:36.458Z,31.11
2022-08-03T12:40:02.698Z,31.26
2022-08-03T12:41:04.293Z,31.43
2022-08-03T12:42:06.046Z,31.58
2022-08-03T12:43:12.195Z,31.67
2022-08-03T12:44:14.034Z,31.75
2022-08-03T12:45:27.006Z,31.80
2022-08-03T12:46:35.663Z,31.82
2022-08-03T12:47:54.303Z,31.88
2022-08-03T12:49:04.016Z,31.83
2022-08-03T12:50:05.992Z,31.89
2022-08-03T12:51:09.271Z,31.90
2022-08-03T12:52:10.774Z,31.89
2022-08-03T12:53:12.250Z,31.83
2022-08-03T12:54:17.820Z,31.80
2022-08-03T12:55:26.635Z,31.74
2022-08-03T12:56:28.189Z,31.79
2022-08-03T12:57:42.360Z,31.75
2022-08-03T12:58:43.831Z,31.70
2022-08-03T12:59:53.469Z,31.67
2022-08-03T13:00:56.057Z,31.71
2022-08-03T13:01:58.374Z,31.58
2022-08-03T13:03:38.437Z,31.56
2022-08-03T13:04:27.693Z,31.66
2022-08-03T13:05:31.588Z,31.73
2022-08-03T13:06:33.081Z,31.77
2022-08-03T13:07:41.405Z,31.76
2022-08-03T13:08:47.955Z,31.80
2022-08-03T13:09:51.957Z,31.89
2022-08-03T13:10:53.455Z,31.85
2022-08-03T13:12:05.675Z,31.85
2022-08-03T13:13:09.811Z,31.86
2022-08-03T13:14:16.672Z,31.85
2022-08-03T13:15:21.932Z,31.89
2022-08-03T13:16:23.700Z,31.94
2022-08-03T13:17:26.196Z,32.03
2022-08-03T13:18:27.727Z,32.00
2022-08-03T13:19:29.242Z,32.06
2022-08-03T13:20:30.723Z,32.11
2022-08-03T13:21:32.765Z,32.08
2022-08-03T13:22:34.563Z,31.92
2022-08-03T13:23:36.044Z,31.83
2022-08-03T13:24:37.619Z,31.76
2022-08-03T13:25:39.071Z,31.78
2022-08-03T13:26:56.911Z,31.83
2022-08-03T13:28:03.156Z,31.77
2022-08-03T13:29:12.661Z,31.77
2022-08-03T13:30:16.183Z,31.71
2022-08-03T13:31:29.037Z,31.66
2022-08-03T13:32:31.282Z,31.73
2022-08-03T13:33:33.038Z,31.76
2022-08-03T13:34:34.733Z,31.69
2022-08-03T13:35:36.187Z,31.71
2022-08-03T13:37:06.437Z,31.74
2022-08-03T13:37:59.539Z,31.84
2022-08-03T13:39:01.046Z,31.96
2022-08-03T13:40:06.788Z,31.92
2022-08-03T13:41:08.701Z,31.96
2022-08-03T13:42:12.103Z,31.97
2022-08-03T13:43:13.589Z,31.92
2022-08-03T13:44:30.208Z,31.87
2022-08-03T13:45:31.748Z,31.93
2022-08-03T13:46:33.221Z,32.00
2022-08-03T13:47:34.718Z,32.04
2022-08-03T13:48:37.690Z,32.08
2022-08-03T13:49:39.439Z,32.16
2022-08-03T13:50:43.041Z,32.06
2022-08-03T13:51:44.754Z,32.02
2022-08-03T13:52:46.215Z,31.94
2022-08-03T13:53:47.672Z,31.98
2022-08-03T13:54:49.112Z,31.95
2022-08-03T13:55:50.592Z,31.80
2022-08-03T13:56:52.239Z,31.53
2022-08-03T13:58:03.516Z,31.47
2022-08-03T13:59:06.981Z,31.53
2022-08-03T14:00:09.102Z,31.52
2022-08-03T14:01:10.655Z,31.55
2022-08-03T14:02:12.305Z,31.61
2022-08-03T14:03:14.826Z,31.66
2022-08-03T14:04:22.250Z,31.69
2022-08-03T14:05:24.029Z,31.68
2022-08-03T14:06:25.521Z,31.69
2022-08-03T14:07:27.081Z,31.64
2022-08-03T14:08:28.765Z,31.62